Twin Brooks, South Dakota
Current Conditions -  °F | °C
As of 1:33 PM on Friday 28 Nov 2014 (Local Time) from KVVV Reporting Station
Clear Clear  
Wind Chill:   Ceiling: Unl
Heat Index: 18°   Visibility: 10mi
Dew Point: 10°   Wind: 8mph
Humidity: 73%   Direction: 100°E
Pressure: 29.78"   Gusts: NA
Location:  45.21°N, 96.78°W
Report Text: KVVV 281933Z AUTO 10007KT 10SM CLR M08/M12 A2978 RMK AO2
Loading
Personal Weather Stations






























Interactive Weather Map New forecast layout! Learn more

10-Day Weather Forecast

Advertisements
Track Severe Weather on mobile